createdAt,value
2022-09-28T05:06:57.938Z,14.77
2022-09-28T05:09:01.257Z,14.77
2022-09-28T05:11:04.803Z,14.76
2022-09-28T05:13:06.617Z,14.75
2022-09-28T05:15:08.556Z,14.75
2022-09-28T05:17:10.603Z,14.74
2022-09-28T05:19:12.324Z,14.79
2022-09-28T05:21:15.371Z,14.82
2022-09-28T05:23:17.675Z,14.86
2022-09-28T05:25:20.664Z,14.86
2022-09-28T05:27:22.164Z,14.84
2022-09-28T05:29:23.681Z,14.80
2022-09-28T05:31:25.436Z,14.86
2022-09-28T05:33:27.261Z,14.85
2022-09-28T05:35:28.813Z,14.86
2022-09-28T05:37:30.303Z,14.91
2022-09-28T05:39:31.785Z,14.89
2022-09-28T05:41:34.737Z,14.77
2022-09-28T05:43:36.306Z,14.71
2022-09-28T05:45:40.646Z,14.76
2022-09-28T05:47:43.529Z,14.82
2022-09-28T05:49:45.060Z,14.82
2022-09-28T05:51:49.475Z,14.84
2022-09-28T05:53:50.985Z,14.84
2022-09-28T05:55:52.681Z,14.87
2022-09-28T05:57:57.973Z,14.85
2022-09-28T05:59:59.494Z,14.79
2022-09-28T06:02:01.166Z,14.78
2022-09-28T06:04:02.768Z,14.72
2022-09-28T06:06:04.513Z,14.78
2022-09-28T06:08:08.090Z,14.86
2022-09-28T06:10:09.576Z,14.88
2022-09-28T06:12:11.086Z,14.90
2022-09-28T06:14:14.055Z,15.00
2022-09-28T06:16:15.923Z,14.92
2022-09-28T06:18:17.498Z,14.93
2022-09-28T06:20:19.062Z,14.95
2022-09-28T06:22:20.599Z,15.00
2022-09-28T06:24:22.816Z,14.99
2022-09-28T06:26:24.555Z,15.01
2022-09-28T06:28:26.079Z,15.02
2022-09-28T06:30:31.304Z,15.05
2022-09-28T06:32:32.925Z,15.05
2022-09-28T06:34:34.604Z,15.06
2022-09-28T06:36:36.155Z,15.10
2022-09-28T06:38:37.686Z,15.11
2022-09-28T06:40:39.248Z,15.09
2022-09-28T06:42:40.862Z,15.11
2022-09-28T06:44:42.401Z,15.09
2022-09-28T06:46:45.374Z,15.14
2022-09-28T06:48:46.933Z,15.16
2022-09-28T06:50:50.252Z,15.16
2022-09-28T06:52:52.920Z,15.14
2022-09-28T06:54:54.409Z,15.11
2022-09-28T06:56:55.956Z,15.12
2022-09-28T06:58:57.472Z,15.20
2022-09-28T07:00:59.057Z,15.26
2022-09-28T07:03:03.270Z,15.37
2022-09-28T07:05:05.653Z,15.31
2022-09-28T07:07:08.521Z,15.39
2022-09-28T07:09:26.720Z,15.44
2022-09-28T07:11:36.669Z,15.63
2022-09-28T07:13:53.436Z,15.74
2022-09-28T07:15:55.672Z,15.91
2022-09-28T07:18:01.856Z,16.04
2022-09-28T07:20:17.247Z,16.14
2022-09-28T07:22:27.426Z,16.27
2022-09-28T07:24:40.356Z,16.43
2022-09-28T07:26:42.289Z,16.52
2022-09-28T07:28:43.814Z,16.71
2022-09-28T07:30:45.400Z,16.89
2022-09-28T07:32:47.183Z,17.02
2022-09-28T07:34:48.861Z,16.99
2022-09-28T07:36:51.896Z,17.12
2022-09-28T07:38:53.982Z,17.15
2022-09-28T07:40:56.809Z,17.14
2022-09-28T07:43:04.326Z,17.21
2022-09-28T07:45:06.867Z,17.22
2022-09-28T07:47:08.686Z,17.16
2022-09-28T07:49:12.394Z,17.10
2022-09-28T07:51:14.168Z,17.05
2022-09-28T07:53:17.809Z,17.14
2022-09-28T07:55:19.449Z,17.33
2022-09-28T07:57:23.288Z,17.50
2022-09-28T07:59:25.180Z,17.67
2022-09-28T08:01:27.023Z,17.73
2022-09-28T08:03:28.620Z,17.92
2022-09-28T08:05:31.112Z,18.10
2022-09-28T08:07:32.691Z,18.24
2022-09-28T08:09:35.900Z,18.26
2022-09-28T08:11:37.887Z,18.26
2022-09-28T08:13:40.091Z,18.27
2022-09-28T08:15:41.694Z,18.25
2022-09-28T08:17:47.346Z,18.27
2022-09-28T08:19:49.498Z,18.29
2022-09-28T08:21:53.569Z,18.46
2022-09-28T08:23:55.147Z,18.63
2022-09-28T08:25:58.510Z,18.75
2022-09-28T08:28:00.081Z,18.85
2022-09-28T08:30:01.847Z,18.98
2022-09-28T08:32:06.552Z,19.12
2022-09-28T08:34:08.168Z,19.12
2022-09-28T08:36:12.088Z,19.09
2022-09-28T08:38:13.774Z,19.01
2022-09-28T08:40:19.794Z,18.93
2022-09-28T08:42:34.920Z,18.84
2022-09-28T08:44:41.438Z,18.73
2022-09-28T08:46:47.926Z,18.70
2022-09-28T08:49:20.559Z,18.63
2022-09-28T08:51:19.731Z,18.61
2022-09-28T08:53:35.752Z,18.63
2022-09-28T08:55:39.569Z,18.60
2022-09-28T08:57:50.391Z,18.63
2022-09-28T08:59:54.603Z,18.62
2022-09-28T09:02:00.251Z,18.54
2022-09-28T09:04:05.131Z,18.52
2022-09-28T09:06:23.186Z,18.45
2022-09-28T09:08:37.265Z,18.44
2022-09-28T09:10:49.572Z,18.39
2022-09-28T09:13:05.873Z,18.42
2022-09-28T09:15:33.680Z,18.40
2022-09-28T09:17:47.599Z,18.41
2022-09-28T09:19:53.618Z,18.41
2022-09-28T09:21:59.940Z,18.38
2022-09-28T09:24:10.689Z,18.32
2022-09-28T09:26:22.215Z,18.30
2022-09-28T09:28:58.179Z,18.25
2022-09-28T09:31:11.674Z,18.18
2022-09-28T09:33:35.784Z,18.19
2022-09-28T09:36:16.294Z,18.28
2022-09-28T09:38:32.804Z,18.42
2022-09-28T09:40:49.718Z,18.50
2022-09-28T09:43:04.181Z,18.55
2022-09-28T09:45:23.859Z,18.55
2022-09-28T09:47:31.670Z,18.44
2022-09-28T09:49:38.590Z,18.38
2022-09-28T09:51:54.669Z,18.32
2022-09-28T09:54:09.712Z,18.31
2022-09-28T09:56:16.046Z,18.33
2022-09-28T09:58:20.987Z,18.39
2022-09-28T10:00:23.886Z,18.47
2022-09-28T10:02:28.536Z,18.53
2022-09-28T10:04:35.878Z,18.55
2022-09-28T10:06:39.025Z,18.53
2022-09-28T10:08:44.187Z,18.49
2022-09-28T10:10:51.393Z,18.48
2022-09-28T10:12:53.685Z,18.43
2022-09-28T10:14:55.367Z,18.47
2022-09-28T10:16:58.790Z,18.46
2022-09-28T10:19:00.840Z,18.48
2022-09-28T10:21:02.851Z,18.48
2022-09-28T10:23:09.150Z,18.49
2022-09-28T10:25:12.764Z,18.53
2022-09-28T10:27:18.004Z,18.54
2022-09-28T10:29:21.363Z,18.52
2022-09-28T10:31:40.818Z,18.53
2022-09-28T10:33:43.790Z,18.49
2022-09-28T10:35:45.355Z,18.47
2022-09-28T10:37:49.961Z,18.58
2022-09-28T10:39:53.925Z,18.68
2022-09-28T10:41:55.713Z,18.76
2022-09-28T10:44:01.288Z,18.74
2022-09-28T10:46:06.724Z,18.79
2022-09-28T10:48:17.813Z,18.88
2022-09-28T10:50:23.694Z,18.97
2022-09-28T10:52:35.668Z,18.95
2022-09-28T10:54:37.333Z,19.00
2022-09-28T10:56:40.431Z,19.11
2022-09-28T10:58:42.171Z,19.49
2022-09-28T11:00:44.928Z,19.92
2022-09-28T11:02:46.724Z,20.13
2022-09-28T11:04:56.562Z,20.18
2022-09-28T11:07:01.895Z,20.29
2022-09-28T11:09:07.767Z,20.19
2022-09-28T11:14:08.688Z,19.89
2022-09-28T11:16:21.171Z,19.76
2022-09-28T11:18:28.674Z,19.65
2022-09-28T11:20:33.486Z,19.57
2022-09-28T11:22:39.656Z,19.50
2022-09-28T11:24:41.220Z,19.44
2022-09-28T11:26:45.367Z,19.37
2022-09-28T11:28:51.849Z,19.35
2022-09-28T11:30:54.450Z,19.27
2022-09-28T11:33:01.920Z,19.24
2022-09-28T11:35:03.785Z,19.17
2022-09-28T11:37:26.574Z,19.15
2022-09-28T11:39:38.809Z,19.07
2022-09-28T11:41:53.401Z,19.06
2022-09-28T11:44:13.204Z,19.00
2022-09-28T11:46:24.688Z,19.01
2022-09-28T11:48:34.029Z,19.02
2022-09-28T11:50:45.581Z,18.96
2022-09-28T11:52:53.460Z,18.96
2022-09-28T11:55:01.316Z,18.93
2022-09-28T11:57:06.290Z,18.93
2022-09-28T11:59:14.992Z,18.92
2022-09-28T12:01:23.118Z,18.96
2022-09-28T12:03:31.019Z,18.92
2022-09-28T12:05:38.457Z,18.98
2022-09-28T12:07:44.454Z,18.96
2022-09-28T12:09:54.349Z,18.98
2022-09-28T12:12:02.338Z,18.93
2022-09-28T12:14:10.235Z,18.99
2022-09-28T12:16:38.930Z,19.01
2022-09-28T12:18:44.667Z,19.09
2022-09-28T12:20:51.671Z,19.14
2022-09-28T12:23:05.211Z,19.21
2022-09-28T12:25:13.171Z,19.19
2022-09-28T12:27:21.432Z,19.19
2022-09-28T12:29:29.206Z,19.18
2022-09-28T12:31:36.903Z,19.15
2022-09-28T12:33:39.748Z,19.16
2022-09-28T12:35:59.069Z,19.17
2022-09-28T12:38:20.800Z,19.19
2022-09-28T12:40:41.404Z,19.21
2022-09-28T12:43:02.960Z,19.19
2022-09-28T12:45:16.681Z,19.18
2022-09-28T12:47:35.989Z,19.18
2022-09-28T12:50:37.016Z,19.21
2022-09-28T12:52:29.010Z,19.20
2022-09-28T12:54:50.007Z,19.23
2022-09-28T12:57:04.560Z,19.22
2022-09-28T12:59:18.899Z,19.23
2022-09-28T13:01:46.388Z,19.23
2022-09-28T13:04:04.902Z,19.23
2022-09-28T13:06:37.832Z,19.21
2022-09-28T13:08:49.431Z,19.19
2022-09-28T13:11:07.879Z,19.20
2022-09-28T13:13:26.026Z,19.20
2022-09-28T13:15:39.542Z,19.18
2022-09-28T13:17:56.604Z,19.18
2022-09-28T13:20:02.761Z,19.16
2022-09-28T13:22:21.124Z,19.18
2022-09-28T13:24:32.558Z,19.19
2022-09-28T13:26:37.805Z,19.22
2022-09-28T13:28:40.679Z,19.25
2022-09-28T13:30:44.917Z,19.26
2022-09-28T13:32:48.947Z,19.27
2022-09-28T13:34:50.728Z,19.29
2022-09-28T13:37:22.279Z,19.23
2022-09-28T13:39:46.490Z,19.22
2022-09-28T13:41:48.725Z,19.21
2022-09-28T13:44:11.037Z,19.23
2022-09-28T13:46:25.761Z,19.24
2022-09-28T13:48:39.827Z,19.33
2022-09-28T13:51:04.817Z,19.37
2022-09-28T13:53:18.313Z,19.39
2022-09-28T13:55:32.871Z,19.41
2022-09-28T13:57:48.639Z,19.36
2022-09-28T14:00:02.327Z,19.41
2022-09-28T14:02:21.934Z,19.45
2022-09-28T14:04:25.395Z,19.39
2022-09-28T14:06:28.386Z,19.41
2022-09-28T14:08:37.517Z,19.45
2022-09-28T14:10:50.027Z,19.45
2022-09-28T14:12:51.962Z,19.39
2022-09-28T14:14:53.547Z,19.38
2022-09-28T14:17:31.462Z,19.42
2022-09-28T14:19:34.921Z,19.42
2022-09-28T14:21:50.986Z,19.45
2022-09-28T14:24:19.028Z,19.40
2022-09-28T14:26:47.260Z,19.38
2022-09-28T14:29:02.031Z,19.37
2022-09-28T14:31:08.752Z,19.37
2022-09-28T14:33:22.535Z,19.36
2022-09-28T14:35:31.615Z,19.33
2022-09-28T14:37:36.903Z,19.37
2022-09-28T14:39:43.705Z,19.36
2022-09-28T14:41:45.867Z,19.35
2022-09-28T14:44:02.852Z,19.36
2022-09-28T14:46:31.389Z,19.36
2022-09-28T14:48:46.737Z,19.33
2022-09-28T14:50:49.750Z,19.30
2022-09-28T14:52:54.216Z,19.29
2022-09-28T14:54:57.104Z,19.27
2022-09-28T14:57:07.713Z,19.29
2022-09-28T14:59:16.505Z,19.31
2022-09-28T15:01:21.100Z,19.29
2022-09-28T15:03:24.225Z,19.26
2022-09-28T15:05:29.876Z,19.26
2022-09-28T15:07:47.764Z,19.25
2022-09-28T15:09:51.323Z,19.22
2022-09-28T15:11:53.286Z,19.22
2022-09-28T15:14:06.023Z,19.30
2022-09-28T15:16:10.710Z,19.33
2022-09-28T15:18:40.023Z,19.37
2022-09-28T15:20:45.532Z,19.34
2022-09-28T15:22:51.231Z,19.34
2022-09-28T15:25:02.212Z,19.36
2022-09-28T15:27:14.886Z,19.35
2022-09-28T15:29:18.045Z,19.30
2022-09-28T15:31:22.019Z,19.29
2022-09-28T15:33:25.261Z,19.35
2022-09-28T15:35:27.914Z,19.30
2022-09-28T15:37:37.402Z,19.30
2022-09-28T15:39:43.369Z,19.29
2022-09-28T15:41:48.292Z,19.32
2022-09-28T15:44:06.271Z,19.32
2022-09-28T15:46:13.492Z,19.27
2022-09-28T15:48:20.131Z,19.27
2022-09-28T15:50:26.656Z,19.26
2022-09-28T15:52:34.336Z,19.26
2022-09-28T15:54:42.066Z,19.24
2022-09-28T15:56:53.805Z,19.27
2022-09-28T15:59:09.906Z,19.30
2022-09-28T16:01:25.389Z,19.25
2022-09-28T16:03:29.049Z,19.22
2022-09-28T16:05:40.792Z,19.21
2022-09-28T16:07:56.059Z,19.18
2022-09-28T16:10:04.565Z,19.16
2022-09-28T16:12:10.885Z,19.09
2022-09-28T16:14:19.415Z,19.09
2022-09-28T16:16:28.263Z,19.08
2022-09-28T16:18:31.356Z,19.04
2022-09-28T16:20:35.576Z,18.94
2022-09-28T16:22:37.722Z,18.92
2022-09-28T16:24:39.642Z,18.93
2022-09-28T16:26:41.300Z,18.93
2022-09-28T16:28:49.610Z,18.94
2022-09-28T16:31:00.981Z,18.88
2022-09-28T16:33:05.689Z,18.89
2022-09-28T16:35:23.468Z,18.84
2022-09-28T16:37:30.672Z,18.79
2022-09-28T16:39:32.380Z,18.77
2022-09-28T16:41:33.992Z,18.72
2022-09-28T16:43:36.079Z,18.70
2022-09-28T16:45:39.285Z,18.62
2022-09-28T16:47:40.896Z,18.54
2022-09-28T16:49:42.475Z,18.52
2022-09-28T16:51:45.116Z,18.49
2022-09-28T16:53:50.324Z,18.47
2022-09-28T16:55:51.878Z,18.45
2022-09-28T16:57:53.975Z,18.43
2022-09-28T16:59:55.483Z,18.37
2022-09-28T17:01:59.070Z,18.40
2022-09-28T17:04:01.287Z,18.35
2022-09-28T17:06:04.184Z,18.29
2022-09-28T17:08:05.995Z,18.29
2022-09-28T17:10:16.497Z,18.30
2022-09-28T17:12:20.680Z,18.29
2022-09-28T17:14:23.496Z,18.26
2022-09-28T17:16:50.979Z,18.21
2022-09-28T17:18:51.422Z,18.17
2022-09-28T17:20:55.370Z,18.06
2022-09-28T17:22:57.066Z,18.09
2022-09-28T17:24:58.649Z,18.07
2022-09-28T17:27:00.411Z,18.08
2022-09-28T17:29:02.264Z,18.01
2022-09-28T17:31:04.591Z,17.92
2022-09-28T17:33:06.302Z,17.88
2022-09-28T17:35:23.605Z,17.82
2022-09-28T17:37:26.622Z,17.76
2022-09-28T17:39:28.226Z,17.69
2022-09-28T17:41:29.893Z,17.66
2022-09-28T17:43:31.757Z,17.64
2022-09-28T17:45:36.722Z,17.68
2022-09-28T17:47:38.331Z,17.63
2022-09-28T17:49:45.932Z,17.63
2022-09-28T17:51:49.496Z,17.64
2022-09-28T17:53:51.137Z,17.66
2022-09-28T17:55:52.671Z,17.66
2022-09-28T17:57:56.218Z,17.62
2022-09-28T17:59:58.116Z,17.55
2022-09-28T18:02:02.629Z,17.55
2022-09-28T18:04:06.036Z,17.62
2022-09-28T18:06:12.878Z,17.67
2022-09-28T18:08:19.578Z,17.70
2022-09-28T18:10:24.217Z,17.72
2022-09-28T18:12:25.925Z,17.70
2022-09-28T18:14:27.622Z,17.66
2022-09-28T18:16:29.265Z,17.66
2022-09-28T18:18:31.773Z,17.60
2022-09-28T18:20:34.815Z,17.54
2022-09-28T18:22:36.957Z,17.45
2022-09-28T18:24:40.219Z,17.37
2022-09-28T18:26:42.386Z,17.37
2022-09-28T18:28:43.998Z,17.25
2022-09-28T18:30:45.752Z,17.29
2022-09-28T18:32:47.512Z,17.30
2022-09-28T18:34:49.314Z,17.32
2022-09-28T18:36:51.057Z,17.22
2022-09-28T18:38:55.735Z,17.23
2022-09-28T18:41:07.195Z,17.16
2022-09-28T18:43:08.936Z,17.16
2022-09-28T18:45:11.400Z,17.20
2022-09-28T18:47:13.587Z,17.13
2022-09-28T18:49:15.399Z,17.13
2022-09-28T18:51:17.142Z,17.05
2022-09-28T18:53:18.794Z,16.99
2022-09-28T18:55:20.775Z,16.94
2022-09-28T18:57:23.754Z,16.80
2022-09-28T18:59:25.926Z,16.72
2022-09-28T19:01:30.460Z,16.66
2022-09-28T19:03:32.671Z,16.58
2022-09-28T19:05:34.311Z,16.57
2022-09-28T19:07:36.143Z,16.49
2022-09-28T19:09:37.938Z,16.46
2022-09-28T19:11:39.848Z,16.40
2022-09-28T19:13:43.789Z,16.34
2022-09-28T19:15:45.531Z,16.32
2022-09-28T19:17:47.232Z,16.27
2022-09-28T19:19:48.979Z,16.27
2022-09-28T19:21:51.122Z,16.21
2022-09-28T19:23:53.004Z,16.27
2022-09-28T19:25:54.653Z,16.16
2022-09-28T19:27:56.247Z,16.15
2022-09-28T19:29:59.309Z,16.13
2022-09-28T19:32:01.408Z,16.10
2022-09-28T19:34:03.569Z,16.10
2022-09-28T19:36:07.920Z,16.07
2022-09-28T19:38:09.611Z,16.04
2022-09-28T19:40:11.170Z,16.06
2022-09-28T19:42:13.054Z,16.04
2022-09-28T19:44:17.460Z,15.99
2022-09-28T19:46:20.535Z,16.00
2022-09-28T19:48:26.033Z,15.99
2022-09-28T19:50:27.631Z,15.97
2022-09-28T19:52:29.409Z,15.94
2022-09-28T19:54:35.555Z,15.96
2022-09-28T19:56:38.045Z,15.94
2022-09-28T19:58:39.667Z,15.92
2022-09-28T20:00:41.176Z,15.89
2022-09-28T20:02:44.412Z,15.88
2022-09-28T20:04:46.592Z,15.88
2022-09-28T20:06:48.266Z,15.92
2022-09-28T20:08:50.635Z,15.88
2022-09-28T20:10:53.904Z,15.87
2022-09-28T20:12:55.632Z,15.89
2022-09-28T20:14:57.761Z,15.89
2022-09-28T20:16:59.524Z,15.98
2022-09-28T20:19:02.874Z,15.95
2022-09-28T20:21:06.558Z,15.95
2022-09-28T20:23:08.225Z,15.91
2022-09-28T20:25:10.294Z,15.92
2022-09-28T20:27:11.865Z,15.85
2022-09-28T20:29:13.617Z,15.83
2022-09-28T20:31:17.485Z,15.81
2022-09-28T20:33:28.592Z,15.79
2022-09-28T20:35:34.240Z,15.77
2022-09-28T20:37:35.802Z,15.79
2022-09-28T20:39:40.345Z,15.82
2022-09-28T20:41:44.314Z,15.81
2022-09-28T20:43:46.546Z,15.83
2022-09-28T20:45:49.655Z,15.79
2022-09-28T20:47:54.479Z,15.80
2022-09-28T20:49:56.029Z,15.81
2022-09-28T20:51:59.011Z,15.84
2022-09-28T20:54:01.057Z,15.83
2022-09-28T20:56:04.404Z,15.80
2022-09-28T20:58:06.010Z,15.78
2022-09-28T21:00:08.975Z,15.79
2022-09-28T21:02:11.955Z,15.76
2022-09-28T21:04:13.603Z,15.76
2022-09-28T21:06:16.235Z,15.77
2022-09-28T21:08:20.931Z,15.81
2022-09-28T21:10:22.531Z,15.80
2022-09-28T21:12:24.188Z,15.78
2022-09-28T21:14:26.522Z,15.74
2022-09-28T21:16:29.988Z,15.73
2022-09-28T21:18:31.593Z,15.74
2022-09-28T21:20:33.131Z,15.77
2022-09-28T21:22:34.796Z,15.78
2022-09-28T21:24:37.901Z,15.76
2022-09-28T21:26:39.504Z,15.78
2022-09-28T21:28:44.308Z,15.78
2022-09-28T21:30:46.101Z,15.73
2022-09-28T21:32:47.700Z,15.71
2022-09-28T21:34:49.286Z,15.70
2022-09-28T21:36:51.323Z,15.70
2022-09-28T21:38:53.341Z,15.64
2022-09-28T21:40:57.069Z,15.64
2022-09-28T21:42:58.772Z,15.64
2022-09-28T21:45:03.921Z,15.63
2022-09-28T21:47:05.814Z,15.62
2022-09-28T21:49:08.105Z,15.58
2022-09-28T21:51:13.943Z,15.57
2022-09-28T21:53:15.492Z,15.54
2022-09-28T21:55:17.235Z,15.56
2022-09-28T21:57:20.775Z,15.60
2022-09-28T21:59:22.513Z,15.55
2022-09-28T22:01:25.181Z,15.52
2022-09-28T22:03:27.218Z,15.52
2022-09-28T22:05:28.959Z,15.52
2022-09-28T22:07:30.540Z,15.55
2022-09-28T22:09:32.084Z,15.51
2022-09-28T22:11:33.889Z,15.54
2022-09-28T22:13:40.769Z,15.51
2022-09-28T22:15:42.274Z,15.51
2022-09-28T22:17:43.895Z,15.51
2022-09-28T22:19:45.408Z,15.44
2022-09-28T22:21:46.948Z,15.45
2022-09-28T22:23:48.917Z,15.45
2022-09-28T22:25:51.522Z,15.43
2022-09-28T22:27:53.101Z,15.42
2022-09-28T22:29:55.961Z,15.42
2022-09-28T22:31:57.653Z,15.40
2022-09-28T22:33:59.420Z,15.37
2022-09-28T22:36:01.498Z,15.41
2022-09-28T22:38:03.117Z,15.34
2022-09-28T22:40:05.630Z,15.40
2022-09-28T22:42:07.640Z,15.42
2022-09-28T22:44:09.315Z,15.40
2022-09-28T22:46:14.581Z,15.39
2022-09-28T22:48:16.250Z,15.35
2022-09-28T22:50:17.782Z,15.34
2022-09-28T22:52:19.288Z,15.32
2022-09-28T22:54:20.820Z,15.30
2022-09-28T22:56:22.480Z,15.30
2022-09-28T22:58:24.222Z,15.26
2022-09-28T23:00:25.748Z,15.26
2022-09-28T23:02:28.583Z,15.25
2022-09-28T23:04:30.062Z,15.22
2022-09-28T23:06:31.628Z,15.23
2022-09-28T23:08:33.787Z,15.25
2022-09-28T23:10:35.343Z,15.25
2022-09-28T23:12:36.942Z,15.27
2022-09-28T23:14:38.406Z,15.25
2022-09-28T23:16:40.087Z,15.24
2022-09-28T23:18:43.065Z,15.21
2022-09-28T23:20:44.713Z,15.21
2022-09-28T23:22:46.466Z,15.20
2022-09-28T23:24:48.022Z,15.19
2022-09-28T23:26:49.508Z,15.19
2022-09-28T23:28:52.463Z,15.16
2022-09-28T23:30:54.194Z,15.14
2022-09-28T23:32:55.703Z,15.13
2022-09-28T23:34:58.582Z,15.14
2022-09-28T23:37:00.087Z,15.13
2022-09-28T23:39:01.804Z,15.13
2022-09-28T23:41:03.339Z,15.11
2022-09-28T23:43:04.870Z,15.11
2022-09-28T23:45:07.392Z,15.12
2022-09-28T23:47:08.861Z,15.09
2022-09-28T23:49:10.501Z,15.06
2022-09-28T23:51:15.938Z,15.00
2022-09-28T23:53:17.556Z,14.96
2022-09-28T23:55:19.113Z,14.93
2022-09-28T23:57:20.656Z,14.96
2022-09-28T23:59:22.169Z,15.00
